sensor_id;sensor_type;location;lat;lon;timestamp;temperature;humidity
80258;DHT22;69565;37.974;23.708;2023-06-14T00:00:40;26.90;43.10
80258;DHT22;69565;37.974;23.708;2023-06-14T00:03:10;26.90;43.00
80258;DHT22;69565;37.974;23.708;2023-06-14T00:05:37;26.90;43.00
80258;DHT22;69565;37.974;23.708;2023-06-14T00:08:09;26.90;43.00
80258;DHT22;69565;37.974;23.708;2023-06-14T00:10:35;26.90;43.00
80258;DHT22;69565;37.974;23.708;2023-06-14T00:13:02;26.90;43.00
80258;DHT22;69565;37.974;23.708;2023-06-14T00:15:30;26.90;43.00
80258;DHT22;69565;37.974;23.708;2023-06-14T00:17:56;26.90;43.00
80258;DHT22;69565;37.974;23.708;2023-06-14T00:20:26;26.90;43.00
80258;DHT22;69565;37.974;23.708;2023-06-14T00:22:53;26.90;42.90
80258;DHT22;69565;37.974;23.708;2023-06-14T00:25:22;26.90;43.10
80258;DHT22;69565;37.974;23.708;2023-06-14T00:27:47;26.90;43.10
80258;DHT22;69565;37.974;23.708;2023-06-14T00:30:13;26.80;43.00
80258;DHT22;69565;37.974;23.708;2023-06-14T00:32:39;26.80;43.00
80258;DHT22;69565;37.974;23.708;2023-06-14T00:35:05;26.90;43.00
80258;DHT22;69565;37.974;23.708;2023-06-14T00:37:31;26.80;42.90
80258;DHT22;69565;37.974;23.708;2023-06-14T00:39:56;26.90;43.00
80258;DHT22;69565;37.974;23.708;2023-06-14T00:42:26;26.90;43.00
80258;DHT22;69565;37.974;23.708;2023-06-14T00:44:52;26.80;43.00
80258;DHT22;69565;37.974;23.708;2023-06-14T00:47:18;26.80;42.90
80258;DHT22;69565;37.974;23.708;2023-06-14T00:49:51;26.80;43.00
80258;DHT22;69565;37.974;23.708;2023-06-14T00:52:18;26.80;43.00
80258;DHT22;69565;37.974;23.708;2023-06-14T00:54:44;26.80;42.90
80258;DHT22;69565;37.974;23.708;2023-06-14T00:57:11;26.80;43.00
80258;DHT22;69565;37.974;23.708;2023-06-14T00:59:48;26.80;43.00
80258;DHT22;69565;37.974;23.708;2023-06-14T01:02:14;26.80;43.10
80258;DHT22;69565;37.974;23.708;2023-06-14T01:04:41;26.70;43.00
80258;DHT22;69565;37.974;23.708;2023-06-14T01:12:50;26.70;43.10
80258;DHT22;69565;37.974;23.708;2023-06-14T01:15:20;26.70;43.20
80258;DHT22;69565;37.974;23.708;2023-06-14T01:17:49;26.70;43.20
80258;DHT22;69565;37.974;23.708;2023-06-14T01:20:17;26.70;43.20
80258;DHT22;69565;37.974;23.708;2023-06-14T01:22:52;26.70;43.20
80258;DHT22;69565;37.974;23.708;2023-06-14T01:25:22;26.70;43.10
80258;DHT22;69565;37.974;23.708;2023-06-14T01:28:03;26.70;43.10
80258;DHT22;69565;37.974;23.708;2023-06-14T01:30:30;26.70;43.10
80258;DHT22;69565;37.974;23.708;2023-06-14T01:32:59;26.70;43.20
80258;DHT22;69565;37.974;23.708;2023-06-14T01:35:25;26.70;43.30
80258;DHT22;69565;37.974;23.708;2023-06-14T01:37:51;26.70;43.30
80258;DHT22;69565;37.974;23.708;2023-06-14T01:40:18;26.70;43.30
80258;DHT22;69565;37.974;23.708;2023-06-14T01:42:47;26.70;43.40
80258;DHT22;69565;37.974;23.708;2023-06-14T01:45:14;26.70;43.40
80258;DHT22;69565;37.974;23.708;2023-06-14T01:47:40;26.70;43.40
80258;DHT22;69565;37.974;23.708;2023-06-14T01:50:06;26.70;43.40
80258;DHT22;69565;37.974;23.708;2023-06-14T01:52:32;26.70;43.50
80258;DHT22;69565;37.974;23.708;2023-06-14T01:54:58;26.60;43.40
80258;DHT22;69565;37.974;23.708;2023-06-14T01:57:29;26.70;43.50
80258;DHT22;69565;37.974;23.708;2023-06-14T01:59:55;26.60;43.40
80258;DHT22;69565;37.974;23.708;2023-06-14T02:02:20;26.60;43.50
80258;DHT22;69565;37.974;23.708;2023-06-14T02:04:46;26.60;43.50
80258;DHT22;69565;37.974;23.708;2023-06-14T02:07:13;26.60;43.50
80258;DHT22;69565;37.974;23.708;2023-06-14T02:09:40;26.60;43.50
80258;DHT22;69565;37.974;23.708;2023-06-14T02:12:06;26.60;43.50
80258;DHT22;69565;37.974;23.708;2023-06-14T02:14:31;26.60;43.60
80258;DHT22;69565;37.974;23.708;2023-06-14T02:16:57;26.60;43.50
80258;DHT22;69565;37.974;23.708;2023-06-14T02:19:24;26.60;43.60
80258;DHT22;69565;37.974;23.708;2023-06-14T02:21:49;26.60;43.60
80258;DHT22;69565;37.974;23.708;2023-06-14T02:24:15;26.60;43.60
80258;DHT22;69565;37.974;23.708;2023-06-14T02:26:41;26.60;43.50
80258;DHT22;69565;37.974;23.708;2023-06-14T02:29:07;26.60;43.50
80258;DHT22;69565;37.974;23.708;2023-06-14T02:31:35;26.60;43.50
80258;DHT22;69565;37.974;23.708;2023-06-14T02:34:01;26.60;43.60
80258;DHT22;69565;37.974;23.708;2023-06-14T02:36:27;26.60;43.60
80258;DHT22;69565;37.974;23.708;2023-06-14T02:38:56;26.50;43.50
80258;DHT22;69565;37.974;23.708;2023-06-14T02:41:23;26.60;43.60
80258;DHT22;69565;37.974;23.708;2023-06-14T02:43:49;26.50;43.60
80258;DHT22;69565;37.974;23.708;2023-06-14T02:46:15;26.50;43.70
80258;DHT22;69565;37.974;23.708;2023-06-14T02:48:41;26.50;43.70
80258;DHT22;69565;37.974;23.708;2023-06-14T02:51:06;26.50;43.70
80258;DHT22;69565;37.974;23.708;2023-06-14T02:53:34;26.50;43.70
80258;DHT22;69565;37.974;23.708;2023-06-14T02:56:00;26.50;43.70
80258;DHT22;69565;37.974;23.708;2023-06-14T02:58:26;26.50;43.70
80258;DHT22;69565;37.974;23.708;2023-06-14T03:00:52;26.50;43.70
80258;DHT22;69565;37.974;23.708;2023-06-14T03:03:21;26.50;43.70
80258;DHT22;69565;37.974;23.708;2023-06-14T03:05:48;26.50;43.70
80258;DHT22;69565;37.974;23.708;2023-06-14T03:08:18;26.50;43.70
80258;DHT22;69565;37.974;23.708;2023-06-14T03:10:48;26.50;43.60
80258;DHT22;69565;37.974;23.708;2023-06-14T03:13:15;26.50;43.60
80258;DHT22;69565;37.974;23.708;2023-06-14T03:15:44;26.50;43.60
80258;DHT22;69565;37.974;23.708;2023-06-14T03:18:10;26.50;43.60
80258;DHT22;69565;37.974;23.708;2023-06-14T03:20:38;26.50;43.50
80258;DHT22;69565;37.974;23.708;2023-06-14T03:23:04;26.50;43.40
80258;DHT22;69565;37.974;23.708;2023-06-14T03:25:31;26.50;43.40
80258;DHT22;69565;37.974;23.708;2023-06-14T03:27:58;26.50;43.30
80258;DHT22;69565;37.974;23.708;2023-06-14T03:30:24;26.60;43.40
80258;DHT22;69565;37.974;23.708;2023-06-14T03:32:49;26.60;43.40
80258;DHT22;69565;37.974;23.708;2023-06-14T03:35:18;26.60;43.40
80258;DHT22;69565;37.974;23.708;2023-06-14T03:37:45;26.60;43.50
80258;DHT22;69565;37.974;23.708;2023-06-14T03:40:12;26.60;43.50
80258;DHT22;69565;37.974;23.708;2023-06-14T03:42:39;26.60;43.30
80258;DHT22;69565;37.974;23.708;2023-06-14T03:45:05;26.60;43.00
80258;DHT22;69565;37.974;23.708;2023-06-14T03:47:32;26.70;42.80
80258;DHT22;69565;37.974;23.708;2023-06-14T03:49:57;26.70;42.50
80258;DHT22;69565;37.974;23.708;2023-06-14T03:52:23;26.80;42.30
80258;DHT22;69565;37.974;23.708;2023-06-14T03:54:50;26.90;42.10
80258;DHT22;69565;37.974;23.708;2023-06-14T03:57:17;26.90;41.70
80258;DHT22;69565;37.974;23.708;2023-06-14T03:59:43;27.00;41.60
80258;DHT22;69565;37.974;23.708;2023-06-14T04:02:08;27.00;41.70
80258;DHT22;69565;37.974;23.708;2023-06-14T04:04:40;27.10;41.90
80258;DHT22;69565;37.974;23.708;2023-06-14T04:07:10;27.10;41.80
80258;DHT22;69565;37.974;23.708;2023-06-14T04:09:37;27.30;41.80
80258;DHT22;69565;37.974;23.708;2023-06-14T04:12:04;27.30;41.60
80258;DHT22;69565;37.974;23.708;2023-06-14T04:14:30;27.30;41.40
80258;DHT22;69565;37.974;23.708;2023-06-14T04:16:56;27.40;41.30
80258;DHT22;69565;37.974;23.708;2023-06-14T04:19:21;27.50;41.20
80258;DHT22;69565;37.974;23.708;2023-06-14T04:21:47;27.50;41.10
80258;DHT22;69565;37.974;23.708;2023-06-14T04:24:13;27.60;41.00
80258;DHT22;69565;37.974;23.708;2023-06-14T04:26:45;27.70;41.00
80258;DHT22;69565;37.974;23.708;2023-06-14T04:29:13;27.70;40.90
80258;DHT22;69565;37.974;23.708;2023-06-14T04:31:40;27.70;40.80
80258;DHT22;69565;37.974;23.708;2023-06-14T04:34:06;27.80;40.80
80258;DHT22;69565;37.974;23.708;2023-06-14T04:36:33;27.80;40.70
80258;DHT22;69565;37.974;23.708;2023-06-14T04:39:01;27.80;40.60
80258;DHT22;69565;37.974;23.708;2023-06-14T04:41:30;27.90;40.50
80258;DHT22;69565;37.974;23.708;2023-06-14T04:43:56;28.00;40.40
80258;DHT22;69565;37.974;23.708;2023-06-14T04:46:24;28.10;40.40
80258;DHT22;69565;37.974;23.708;2023-06-14T04:48:49;28.10;40.20
80258;DHT22;69565;37.974;23.708;2023-06-14T04:51:16;28.20;40.10
80258;DHT22;69565;37.974;23.708;2023-06-14T04:53:42;28.20;39.90
80258;DHT22;69565;37.974;23.708;2023-06-14T04:56:08;28.30;39.70
80258;DHT22;69565;37.974;23.708;2023-06-14T04:58:34;28.40;39.60
80258;DHT22;69565;37.974;23.708;2023-06-14T05:01:00;28.50;39.50
80258;DHT22;69565;37.974;23.708;2023-06-14T05:03:27;28.60;39.40
80258;DHT22;69565;37.974;23.708;2023-06-14T05:05:55;28.60;39.20
80258;DHT22;69565;37.974;23.708;2023-06-14T05:08:22;28.70;39.00
80258;DHT22;69565;37.974;23.708;2023-06-14T05:10:51;28.80;38.90
80258;DHT22;69565;37.974;23.708;2023-06-14T05:13:17;28.90;38.70
80258;DHT22;69565;37.974;23.708;2023-06-14T05:15:42;29.00;38.60
80258;DHT22;69565;37.974;23.708;2023-06-14T05:18:08;29.10;38.50
80258;DHT22;69565;37.974;23.708;2023-06-14T05:20:35;29.20;38.40
80258;DHT22;69565;37.974;23.708;2023-06-14T05:23:02;29.20;38.10
80258;DHT22;69565;37.974;23.708;2023-06-14T05:25:28;29.30;37.90
80258;DHT22;69565;37.974;23.708;2023-06-14T05:27:54;29.40;37.80
80258;DHT22;69565;37.974;23.708;2023-06-14T05:30:20;29.50;37.70
80258;DHT22;69565;37.974;23.708;2023-06-14T05:32:45;29.60;37.50
80258;DHT22;69565;37.974;23.708;2023-06-14T05:35:11;29.70;37.50
80258;DHT22;69565;37.974;23.708;2023-06-14T05:37:37;29.70;37.20
80258;DHT22;69565;37.974;23.708;2023-06-14T05:40:04;29.80;37.00
80258;DHT22;69565;37.974;23.708;2023-06-14T05:42:33;29.90;36.90
80258;DHT22;69565;37.974;23.708;2023-06-14T05:44:59;29.90;36.70
80258;DHT22;69565;37.974;23.708;2023-06-14T05:47:25;30.00;36.50
80258;DHT22;69565;37.974;23.708;2023-06-14T05:49:51;30.10;36.40
80258;DHT22;69565;37.974;23.708;2023-06-14T05:52:17;30.20;36.10
80258;DHT22;69565;37.974;23.708;2023-06-14T05:54:42;30.20;35.90
80258;DHT22;69565;37.974;23.708;2023-06-14T05:57:08;30.30;35.70
80258;DHT22;69565;37.974;23.708;2023-06-14T05:59:36;30.40;35.50
80258;DHT22;69565;37.974;23.708;2023-06-14T06:02:02;30.50;35.30
80258;DHT22;69565;37.974;23.708;2023-06-14T06:04:27;30.60;35.20
80258;DHT22;69565;37.974;23.708;2023-06-14T06:06:53;30.60;34.90
80258;DHT22;69565;37.974;23.708;2023-06-14T06:09:19;30.70;34.80
80258;DHT22;69565;37.974;23.708;2023-06-14T06:11:45;30.70;34.60
80258;DHT22;69565;37.974;23.708;2023-06-14T06:14:11;30.80;34.50
80258;DHT22;69565;37.974;23.708;2023-06-14T06:16:36;30.80;34.30
80258;DHT22;69565;37.974;23.708;2023-06-14T06:19:02;30.90;34.10
80258;DHT22;69565;37.974;23.708;2023-06-14T06:21:28;31.00;34.00
80258;DHT22;69565;37.974;23.708;2023-06-14T06:23:53;31.10;33.90
80258;DHT22;69565;37.974;23.708;2023-06-14T06:26:22;31.10;33.70
80258;DHT22;69565;37.974;23.708;2023-06-14T06:28:48;31.10;33.50
80258;DHT22;69565;37.974;23.708;2023-06-14T06:31:14;31.20;33.40
80258;DHT22;69565;37.974;23.708;2023-06-14T06:33:40;31.30;33.20
80258;DHT22;69565;37.974;23.708;2023-06-14T06:36:06;31.40;33.10
80258;DHT22;69565;37.974;23.708;2023-06-14T06:38:32;31.40;33.00
80258;DHT22;69565;37.974;23.708;2023-06-14T06:40:57;31.40;32.80
80258;DHT22;69565;37.974;23.708;2023-06-14T06:43:23;31.50;32.70
80258;DHT22;69565;37.974;23.708;2023-06-14T06:45:49;31.50;32.60
80258;DHT22;69565;37.974;23.708;2023-06-14T06:48:15;31.60;32.50
80258;DHT22;69565;37.974;23.708;2023-06-14T06:50:41;31.70;32.40
80258;DHT22;69565;37.974;23.708;2023-06-14T06:53:07;31.70;32.20
80258;DHT22;69565;37.974;23.708;2023-06-14T06:55:33;31.80;32.10
80258;DHT22;69565;37.974;23.708;2023-06-14T06:57:58;31.80;32.00
80258;DHT22;69565;37.974;23.708;2023-06-14T07:00:25;31.90;33.00
80258;DHT22;69565;37.974;23.708;2023-06-14T07:02:51;32.00;31.90
80258;DHT22;69565;37.974;23.708;2023-06-14T07:05:17;32.00;31.80
80258;DHT22;69565;37.974;23.708;2023-06-14T07:07:43;32.00;31.70
80258;DHT22;69565;37.974;23.708;2023-06-14T07:10:09;32.10;31.60
80258;DHT22;69565;37.974;23.708;2023-06-14T07:12:35;32.10;31.60
80258;DHT22;69565;37.974;23.708;2023-06-14T07:15:06;32.20;31.50
80258;DHT22;69565;37.974;23.708;2023-06-14T07:17:32;32.20;31.40
80258;DHT22;69565;37.974;23.708;2023-06-14T07:19:57;32.20;31.30
80258;DHT22;69565;37.974;23.708;2023-06-14T07:22:23;32.30;31.30
80258;DHT22;69565;37.974;23.708;2023-06-14T07:24:49;32.30;31.20
80258;DHT22;69565;37.974;23.708;2023-06-14T07:27:15;32.30;31.10
80258;DHT22;69565;37.974;23.708;2023-06-14T07:29:40;32.30;31.00
80258;DHT22;69565;37.974;23.708;2023-06-14T07:32:06;32.30;31.00
80258;DHT22;69565;37.974;23.708;2023-06-14T07:34:32;32.40;31.00
80258;DHT22;69565;37.974;23.708;2023-06-14T07:36:58;32.40;30.90
80258;DHT22;69565;37.974;23.708;2023-06-14T07:39:23;32.40;30.90
80258;DHT22;69565;37.974;23.708;2023-06-14T07:41:49;32.40;30.80
80258;DHT22;69565;37.974;23.708;2023-06-14T07:44:15;32.30;30.80
80258;DHT22;69565;37.974;23.708;2023-06-14T07:46:41;32.30;30.90
80258;DHT22;69565;37.974;23.708;2023-06-14T07:49:07;32.20;31.00
80258;DHT22;69565;37.974;23.708;2023-06-14T07:51:33;32.10;31.10
80258;DHT22;69565;37.974;23.708;2023-06-14T07:54:00;32.00;31.30
80258;DHT22;69565;37.974;23.708;2023-06-14T07:56:28;31.80;31.40
80258;DHT22;69565;37.974;23.708;2023-06-14T07:58:54;31.70;31.60
80258;DHT22;69565;37.974;23.708;2023-06-14T08:01:20;31.50;31.70
80258;DHT22;69565;37.974;23.708;2023-06-14T08:03:46;31.50;31.90
80258;DHT22;69565;37.974;23.708;2023-06-14T08:06:11;31.40;31.90
80258;DHT22;69565;37.974;23.708;2023-06-14T08:08:37;31.40;32.00
80258;DHT22;69565;37.974;23.708;2023-06-14T08:11:03;31.30;32.00
80258;DHT22;69565;37.974;23.708;2023-06-14T08:13:28;31.20;32.10
80258;DHT22;69565;37.974;23.708;2023-06-14T08:15:54;31.20;32.20
80258;DHT22;69565;37.974;23.708;2023-06-14T08:18:22;31.10;32.30
80258;DHT22;69565;37.974;23.708;2023-06-14T08:20:48;31.10;32.30
80258;DHT22;69565;37.974;23.708;2023-06-14T08:23:14;31.00;32.30
80258;DHT22;69565;37.974;23.708;2023-06-14T08:25:41;31.00;32.30
80258;DHT22;69565;37.974;23.708;2023-06-14T08:28:07;31.00;32.40
80258;DHT22;69565;37.974;23.708;2023-06-14T08:30:32;31.00;32.50
80258;DHT22;69565;37.974;23.708;2023-06-14T08:32:58;30.90;32.50
80258;DHT22;69565;37.974;23.708;2023-06-14T08:35:23;30.90;32.50
80258;DHT22;69565;37.974;23.708;2023-06-14T08:37:49;30.80;32.50
80258;DHT22;69565;37.974;23.708;2023-06-14T08:40:22;30.80;32.70
80258;DHT22;69565;37.974;23.708;2023-06-14T08:42:53;30.80;32.50
80258;DHT22;69565;37.974;23.708;2023-06-14T08:45:20;30.80;32.60
80258;DHT22;69565;37.974;23.708;2023-06-14T08:47:47;30.70;32.50
80258;DHT22;69565;37.974;23.708;2023-06-14T08:50:20;30.70;32.50
80258;DHT22;69565;37.974;23.708;2023-06-14T08:52:48;30.70;32.50
80258;DHT22;69565;37.974;23.708;2023-06-14T08:55:16;30.60;32.50
80258;DHT22;69565;37.974;23.708;2023-06-14T08:57:44;30.60;32.50
80258;DHT22;69565;37.974;23.708;2023-06-14T09:00:11;30.60;32.70
80258;DHT22;69565;37.974;23.708;2023-06-14T09:02:39;30.50;32.60
80258;DHT22;69565;37.974;23.708;2023-06-14T09:05:09;30.50;32.70
80258;DHT22;69565;37.974;23.708;2023-06-14T09:07:37;30.50;32.70
80258;DHT22;69565;37.974;23.708;2023-06-14T09:10:22;30.50;32.80
80258;DHT22;69565;37.974;23.708;2023-06-14T09:12:48;30.50;32.80
80258;DHT22;69565;37.974;23.708;2023-06-14T09:15:14;30.40;32.70
80258;DHT22;69565;37.974;23.708;2023-06-14T09:17:42;30.40;32.80
80258;DHT22;69565;37.974;23.708;2023-06-14T09:20:09;30.40;32.80
80258;DHT22;69565;37.974;23.708;2023-06-14T09:22:44;30.40;32.90
80258;DHT22;69565;37.974;23.708;2023-06-14T09:25:10;30.40;32.80
80258;DHT22;69565;37.974;23.708;2023-06-14T09:27:39;30.40;32.80
80258;DHT22;69565;37.974;23.708;2023-06-14T09:30:08;30.40;32.70
80258;DHT22;69565;37.974;23.708;2023-06-14T09:32:38;30.40;32.70
80258;DHT22;69565;37.974;23.708;2023-06-14T09:35:07;30.30;32.70
80258;DHT22;69565;37.974;23.708;2023-06-14T09:37:34;30.40;33.10
80258;DHT22;69565;37.974;23.708;2023-06-14T09:40:00;30.30;33.20
80258;DHT22;69565;37.974;23.708;2023-06-14T09:42:26;30.30;33.40
80258;DHT22;69565;37.974;23.708;2023-06-14T09:44:54;30.30;33.70
80258;DHT22;69565;37.974;23.708;2023-06-14T09:47:20;30.30;33.80
80258;DHT22;69565;37.974;23.708;2023-06-14T09:49:47;30.30;33.90
80258;DHT22;69565;37.974;23.708;2023-06-14T09:52:17;30.30;34.10
80258;DHT22;69565;37.974;23.708;2023-06-14T09:54:44;30.30;34.20
80258;DHT22;69565;37.974;23.708;2023-06-14T09:57:21;30.30;34.50
80258;DHT22;69565;37.974;23.708;2023-06-14T09:59:48;30.30;34.60
80258;DHT22;69565;37.974;23.708;2023-06-14T10:02:33;30.30;34.70
80258;DHT22;69565;37.974;23.708;2023-06-14T10:05:08;30.20;34.80
80258;DHT22;69565;37.974;23.708;2023-06-14T10:07:49;30.20;35.00
80258;DHT22;69565;37.974;23.708;2023-06-14T10:10:18;30.20;35.00
80258;DHT22;69565;37.974;23.708;2023-06-14T10:12:44;30.20;35.10
80258;DHT22;69565;37.974;23.708;2023-06-14T10:15:27;30.20;35.20
80258;DHT22;69565;37.974;23.708;2023-06-14T10:18:01;30.20;35.20
80258;DHT22;69565;37.974;23.708;2023-06-14T10:23:40;30.20;35.20
80258;DHT22;69565;37.974;23.708;2023-06-14T10:26:07;30.10;35.30
80258;DHT22;69565;37.974;23.708;2023-06-14T10:28:37;30.20;35.40
80258;DHT22;69565;37.974;23.708;2023-06-14T10:33:30;30.20;35.40
80258;DHT22;69565;37.974;23.708;2023-06-14T10:36:24;30.10;35.20
80258;DHT22;69565;37.974;23.708;2023-06-14T10:41:35;30.10;35.10
80258;DHT22;69565;37.974;23.708;2023-06-14T10:46:39;30.10;35.30
80258;DHT22;69565;37.974;23.708;2023-06-14T10:49:05;30.10;35.20
80258;DHT22;69565;37.974;23.708;2023-06-14T10:51:42;30.20;36.30
80258;DHT22;69565;37.974;23.708;2023-06-14T10:54:15;30.10;35.10
80258;DHT22;69565;37.974;23.708;2023-06-14T10:56:51;30.10;35.10
80258;DHT22;69565;37.974;23.708;2023-06-14T10:59:18;30.20;35.20
80258;DHT22;69565;37.974;23.708;2023-06-14T11:02:04;30.10;35.10
80258;DHT22;69565;37.974;23.708;2023-06-14T11:04:52;30.10;35.10
80258;DHT22;69565;37.974;23.708;2023-06-14T11:12:57;30.00;35.40
80258;DHT22;69565;37.974;23.708;2023-06-14T11:15:32;30.00;35.30
80258;DHT22;69565;37.974;23.708;2023-06-14T11:18:08;30.00;35.40
80258;DHT22;69565;37.974;23.708;2023-06-14T11:20:37;30.00;35.20
80258;DHT22;69565;37.974;23.708;2023-06-14T11:23:03;30.00;35.20
80258;DHT22;69565;37.974;23.708;2023-06-14T11:25:30;30.00;35.20
80258;DHT22;69565;37.974;23.708;2023-06-14T11:27:56;30.00;35.10
80258;DHT22;69565;37.974;23.708;2023-06-14T11:30:23;30.00;35.10
80258;DHT22;69565;37.974;23.708;2023-06-14T11:32:52;30.00;35.20
80258;DHT22;69565;37.974;23.708;2023-06-14T11:35:19;30.00;35.10
80258;DHT22;69565;37.974;23.708;2023-06-14T11:37:47;30.00;35.10
80258;DHT22;69565;37.974;23.708;2023-06-14T11:40:14;29.90;35.10
80258;DHT22;69565;37.974;23.708;2023-06-14T11:42:41;30.00;35.20
80258;DHT22;69565;37.974;23.708;2023-06-14T11:45:11;30.00;35.10
80258;DHT22;69565;37.974;23.708;2023-06-14T11:47:38;30.00;35.20
80258;DHT22;69565;37.974;23.708;2023-06-14T11:50:06;30.00;35.20
80258;DHT22;69565;37.974;23.708;2023-06-14T11:52:34;30.00;35.30
80258;DHT22;69565;37.974;23.708;2023-06-14T11:55:01;30.00;35.30
80258;DHT22;69565;37.974;23.708;2023-06-14T11:57:30;29.90;35.30
80258;DHT22;69565;37.974;23.708;2023-06-14T11:59:55;29.90;35.30
80258;DHT22;69565;37.974;23.708;2023-06-14T12:02:22;29.90;35.30
80258;DHT22;69565;37.974;23.708;2023-06-14T12:04:48;29.90;35.40
80258;DHT22;69565;37.974;23.708;2023-06-14T12:07:15;29.90;35.50
80258;DHT22;69565;37.974;23.708;2023-06-14T12:10:03;29.90;35.50
80258;DHT22;69565;37.974;23.708;2023-06-14T12:12:37;29.90;35.50
80258;DHT22;69565;37.974;23.708;2023-06-14T12:15:07;29.90;35.70
80258;DHT22;69565;37.974;23.708;2023-06-14T12:17:34;29.90;35.70
80258;DHT22;69565;37.974;23.708;2023-06-14T12:20:06;29.80;35.60
80258;DHT22;69565;37.974;23.708;2023-06-14T12:22:54;29.90;35.70
80258;DHT22;69565;37.974;23.708;2023-06-14T12:25:30;29.80;35.70
80258;DHT22;69565;37.974;23.708;2023-06-14T12:27:57;29.90;35.80
80258;DHT22;69565;37.974;23.708;2023-06-14T12:30:23;29.80;35.70
80258;DHT22;69565;37.974;23.708;2023-06-14T12:32:49;29.80;35.80
80258;DHT22;69565;37.974;23.708;2023-06-14T12:35:17;29.80;35.80
80258;DHT22;69565;37.974;23.708;2023-06-14T12:37:44;29.80;35.80
80258;DHT22;69565;37.974;23.708;2023-06-14T12:40:11;29.80;35.80
80258;DHT22;69565;37.974;23.708;2023-06-14T12:42:37;29.80;35.80
80258;DHT22;69565;37.974;23.708;2023-06-14T12:45:03;29.80;35.80
80258;DHT22;69565;37.974;23.708;2023-06-14T12:47:29;29.80;35.70
80258;DHT22;69565;37.974;23.708;2023-06-14T12:49:55;29.80;35.70
80258;DHT22;69565;37.974;23.708;2023-06-14T12:52:21;29.80;36.30
80258;DHT22;69565;37.974;23.708;2023-06-14T12:54:47;29.80;35.70
80258;DHT22;69565;37.974;23.708;2023-06-14T12:57:13;29.80;35.70
80258;DHT22;69565;37.974;23.708;2023-06-14T12:59:38;29.80;35.70
80258;DHT22;69565;37.974;23.708;2023-06-14T13:02:17;29.80;35.60
80258;DHT22;69565;37.974;23.708;2023-06-14T13:04:43;29.80;35.50
80258;DHT22;69565;37.974;23.708;2023-06-14T13:07:09;29.80;35.50
80258;DHT22;69565;37.974;23.708;2023-06-14T13:09:37;29.80;35.70
80258;DHT22;69565;37.974;23.708;2023-06-14T13:12:03;29.80;35.60
80258;DHT22;69565;37.974;23.708;2023-06-14T13:14:28;29.70;35.60
80258;DHT22;69565;37.974;23.708;2023-06-14T13:16:54;29.70;35.60
80258;DHT22;69565;37.974;23.708;2023-06-14T13:19:21;29.70;35.70
80258;DHT22;69565;37.974;23.708;2023-06-14T13:21:47;29.60;35.60
80258;DHT22;69565;37.974;23.708;2023-06-14T13:24:13;29.70;35.70
80258;DHT22;69565;37.974;23.708;2023-06-14T13:26:39;29.70;35.70
80258;DHT22;69565;37.974;23.708;2023-06-14T13:29:05;29.60;35.80
80258;DHT22;69565;37.974;23.708;2023-06-14T13:31:30;29.60;35.80
80258;DHT22;69565;37.974;23.708;2023-06-14T13:33:56;29.60;35.80
80258;DHT22;69565;37.974;23.708;2023-06-14T13:36:22;29.60;35.90
80258;DHT22;69565;37.974;23.708;2023-06-14T13:38:48;29.60;36.00
80258;DHT22;69565;37.974;23.708;2023-06-14T13:41:13;29.60;36.20
80258;DHT22;69565;37.974;23.708;2023-06-14T13:43:39;29.60;36.30
80258;DHT22;69565;37.974;23.708;2023-06-14T13:46:06;29.60;36.50
80258;DHT22;69565;37.974;23.708;2023-06-14T13:48:31;29.60;36.70
80258;DHT22;69565;37.974;23.708;2023-06-14T13:50:59;29.50;36.70
80258;DHT22;69565;37.974;23.708;2023-06-14T13:53:25;29.50;36.90
80258;DHT22;69565;37.974;23.708;2023-06-14T13:55:51;29.50;37.10
80258;DHT22;69565;37.974;23.708;2023-06-14T13:58:18;29.50;37.20
80258;DHT22;69565;37.974;23.708;2023-06-14T14:00:44;29.50;37.40
80258;DHT22;69565;37.974;23.708;2023-06-14T14:03:10;29.50;37.40
80258;DHT22;69565;37.974;23.708;2023-06-14T14:05:35;29.40;37.40
80258;DHT22;69565;37.974;23.708;2023-06-14T14:08:01;29.40;37.50
80258;DHT22;69565;37.974;23.708;2023-06-14T14:10:27;29.40;37.60
80258;DHT22;69565;37.974;23.708;2023-06-14T14:12:53;29.40;37.70
80258;DHT22;69565;37.974;23.708;2023-06-14T14:15:20;29.50;38.90
80258;DHT22;69565;37.974;23.708;2023-06-14T14:17:46;29.40;37.80
80258;DHT22;69565;37.974;23.708;2023-06-14T14:20:12;29.40;37.90
80258;DHT22;69565;37.974;23.708;2023-06-14T14:22:41;29.40;38.00
80258;DHT22;69565;37.974;23.708;2023-06-14T14:25:07;29.40;38.00
80258;DHT22;69565;37.974;23.708;2023-06-14T14:27:33;29.40;38.10
80258;DHT22;69565;37.974;23.708;2023-06-14T14:29:59;29.40;38.20
80258;DHT22;69565;37.974;23.708;2023-06-14T14:32:24;29.30;38.20
80258;DHT22;69565;37.974;23.708;2023-06-14T14:34:50;29.30;38.40
80258;DHT22;69565;37.974;23.708;2023-06-14T14:37:16;29.30;38.40
80258;DHT22;69565;37.974;23.708;2023-06-14T14:39:43;29.30;38.40
80258;DHT22;69565;37.974;23.708;2023-06-14T14:42:09;29.30;38.60
80258;DHT22;69565;37.974;23.708;2023-06-14T14:44:37;29.30;38.60
80258;DHT22;69565;37.974;23.708;2023-06-14T14:47:02;29.30;38.70
80258;DHT22;69565;37.974;23.708;2023-06-14T14:49:28;29.30;38.70
80258;DHT22;69565;37.974;23.708;2023-06-14T14:51:55;29.30;38.70
80258;DHT22;69565;37.974;23.708;2023-06-14T14:54:22;29.20;38.60
80258;DHT22;69565;37.974;23.708;2023-06-14T14:56:48;29.20;38.70
80258;DHT22;69565;37.974;23.708;2023-06-14T14:59:14;29.20;39.00
80258;DHT22;69565;37.974;23.708;2023-06-14T15:01:40;29.20;39.10
80258;DHT22;69565;37.974;23.708;2023-06-14T15:04:06;29.20;39.10
80258;DHT22;69565;37.974;23.708;2023-06-14T15:06:32;29.20;39.30
80258;DHT22;69565;37.974;23.708;2023-06-14T15:09:01;29.10;39.30
80258;DHT22;69565;37.974;23.708;2023-06-14T15:11:26;29.20;39.60
80258;DHT22;69565;37.974;23.708;2023-06-14T15:13:53;29.10;39.70
80258;DHT22;69565;37.974;23.708;2023-06-14T15:16:19;29.10;39.90
80258;DHT22;69565;37.974;23.708;2023-06-14T15:18:45;29.10;40.00
80258;DHT22;69565;37.974;23.708;2023-06-14T15:21:11;29.10;40.10
80258;DHT22;69565;37.974;23.708;2023-06-14T15:23:37;29.10;40.20
80258;DHT22;69565;37.974;23.708;2023-06-14T15:26:03;29.10;40.30
80258;DHT22;69565;37.974;23.708;2023-06-14T15:28:28;29.10;40.40
80258;DHT22;69565;37.974;23.708;2023-06-14T15:30:57;29.00;40.30
80258;DHT22;69565;37.974;23.708;2023-06-14T15:33:23;29.00;40.30
80258;DHT22;69565;37.974;23.708;2023-06-14T15:35:48;29.00;41.40
80258;DHT22;69565;37.974;23.708;2023-06-14T15:38:14;29.00;40.30